Date,TemperatureHighF,TemperatureAvgF,TemperatureLowF,DewpointHighF,DewpointAvgF,DewpointLowF,HumidityHigh,HumidityAvg,HumidityLow,PressureMaxIn,PressureMinIn,WindSpeedMaxMPH,WindSpeedAvgMPH,GustSpeedMaxMPH,PrecipitationSumIn
2013-1-9,41.8,40.1,34.7,35.5,33.9,30.6,85,78,76,30.07,30.01,2,0,4,0.00
2013-1-10,50.7,40.5,30.1,35.4,31.1,27.8,94,71,47,30.20,30.06,12,2,16,0.00
2013-1-11,53.4,41.2,32.5,40.9,33.0,27.6,86,73,54,30.25,30.10,7,0,11,0.00
2013-1-12,51.5,38.9,28.3,35.2,30.1,25.6,93,73,44,30.25,30.12,6,0,8,0.00
2013-1-13,53.9,35.4,23.0,34.0,27.8,11.6,93,77,30,30.28,30.16,13,0,15,0.00
2013-1-14,55.8,40.0,27.4,33.3,25.4,11.2,86,59,27,30.40,30.23,13,1,18,0.01
2013-1-15,54.0,37.8,26.7,35.5,29.8,24.2,93,75,44,30.49,30.38,6,1,6,0.00
2013-1-16,59.0,39.0,26.5,39.3,31.8,23.9,94,78,46,30.45,30.26,4,0,5,0.01
2013-1-17,60.4,39.4,27.1,42.7,33.0,24.8,96,80,45,30.28,30.14,4,0,4,0.00
2013-1-18,64.2,40.7,26.7,44.0,33.8,24.7,96,79,42,30.24,30.12,3,0,4,0.01
2013-1-19,62.8,42.6,26.4,42.9,34.8,24.1,95,76,46,30.25,30.14,5,0,6,0.01
2013-1-20,61.8,42.6,26.9,42.1,33.8,24.6,95,75,43,30.24,30.11,4,0,6,0.00
2013-1-21,62.7,41.4,26.3,44.1,34.0,23.9,95,77,45,30.19,30.07,6,0,9,0.01
2013-1-22,60.7,42.2,28.3,43.7,35.3,26.3,95,79,50,30.12,29.98,4,0,7,0.00
2013-1-23,50.2,46.9,43.8,47.9,43.9,39.1,96,89,83,30.08,29.95,5,0,7,0.09
2013-1-24,59.6,51.6,47.4,54.0,49.4,46.3,98,92,79,30.19,30.06,4,0,6,0.00
2013-1-25,63.2,53.6,46.8,55.9,50.7,45.1,98,90,73,30.19,30.03,3,0,5,0.00
2013-1-26,57.7,48.5,39.3,46.3,40.8,33.8,97,77,45,30.07,29.95,11,1,15,0.02
2013-1-27,56.5,44.6,33.0,37.3,33.7,29.6,90,68,42,30.18,30.05,12,2,16,0.00
2013-1-28,57.5,47.5,36.1,40.0,36.5,31.2,87,67,48,30.29,30.16,15,3,18,0.00
2013-1-29,62.8,50.0,40.6,43.6,39.0,34.3,90,67,45,30.35,30.26,10,2,14,0.00
2013-1-30,67.1,49.8,37.7,48.5,41.0,34.8,92,73,47,30.33,30.24,8,1,12,0.00
2013-1-31,65.5,46.6,33.2,47.5,40.0,31.3,96,80,48,30.30,30.17,5,0,6,0.00
2013-2-1,67.5,47.4,31.5,50.5,40.5,29.7,96,79,51,30.22,30.10,5,0,7,0.01
2013-2-2,58.7,46.3,39.3,49.8,42.8,36.9,97,88,69,30.30,30.20,5,1,8,0.01
2013-2-3,60.8,47.7,39.2,49.2,43.3,37.3,97,86,63,30.25,30.14,6,1,7,0.00
2013-2-4,54.1,44.3,38.8,49.7,42.3,36.8,98,93,80,30.18,30.06,6,1,8,0.01
2013-2-5,62.2,49.4,43.5,48.2,44.3,38.0,96,84,59,30.15,30.04,7,1,10,0.01
2013-2-6,60.2,45.1,32.0,45.1,38.0,29.9,95,77,55,30.20,30.09,10,1,12,0.01
2013-2-7,55.8,45.9,37.8,47.0,39.1,34.9,95,79,46,30.15,29.99,10,1,17,0.05
2013-2-8,59.2,44.0,32.3,40.1,34.9,29.7,96,74,34,30.03,29.93,9,1,17,0.00
2013-2-9,62.9,44.0,31.0,37.6,30.3,23.0,91,63,26,30.10,30.00,7,0,9,0.00
2013-2-10,63.1,42.7,28.8,46.5,33.9,25.7,92,74,33,30.13,30.00,10,1,13,0.00
2013-2-11,68.9,46.5,32.4,42.7,34.8,29.0,91,70,27,30.23,30.08,8,1,11,0.00
2013-2-12,61.4,45.9,31.5,46.5,39.1,29.6,96,79,51,30.36,30.22,7,1,12,0.01
2013-2-13,64.4,45.0,30.8,47.6,38.7,29.0,96,81,50,30.35,30.20,5,1,7,0.01
2013-2-14,69.1,48.0,35.1,53.1,40.9,33.5,97,79,44,30.26,30.15,6,1,9,0.01
2013-2-15,70.6,51.7,33.3,48.5,40.7,31.3,96,70,37,30.27,30.20,4,0,8,0.00
2013-2-16,70.3,50.5,36.8,49.5,42.2,34.6,95,76,41,30.25,30.05,8,1,8,0.01
2013-6-6,73.1,58.1,50.6,56.6,51.0,47.5,93,79,55,29.97,29.87,4,1,10,0.00
2013-6-7,89.1,65.6,50.2,62.3,54.1,48.6,95,71,40,29.91,29.74,2,0,8,0.00
2013-6-8,87.4,65.4,53.4,63.5,54.5,50.3,90,70,45,29.85,29.73,6,2,16,0.00
2013-6-9,64.6,58.6,55.4,54.6,53.0,51.9,90,82,70,29.91,29.85,4,2,12,0.00
2013-6-10,61.2,57.7,55.1,55.6,53.8,52.9,96,87,76,29.97,29.80,3,1,11,0.02
2013-6-11,78.8,63.6,52.7,59.0,53.9,48.4,95,73,48,29.99,29.90,3,1,10,0.00
2013-6-12,85.5,70.4,41.0,50.4,39.7,31.2,95,38,15,30.01,29.91,13,3,19,0.00
2013-6-13,85.5,64.7,41.0,46.8,43.0,37.2,89,51,22,30.10,30.00,12,2,19,0.00
2013-6-14,87.2,66.3,49.8,51.4,46.9,41.6,84,55,24,30.02,29.85,8,1,12,0.00
2013-6-15,77.8,59.8,42.9,54.9,48.4,40.2,94,69,40,30.00,29.84,11,1,13,0.00
2013-6-16,88.1,65.8,43.2,54.5,47.5,40.7,94,58,27,30.09,29.99,12,1,15,0.00
2013-6-17,80.1,63.6,45.8,55.9,50.3,42.3,90,64,41,30.09,30.02,11,2,17,0.00
2013-6-18,73.9,58.2,46.9,50.4,47.1,43.0,93,71,35,30.03,30.00,14,1,16,0.00
2013-6-19,79.4,61.5,46.9,49.6,43.8,38.0,83,56,24,30.05,30.01,5,1,18,0.00
2013-6-20,83.0,65.8,44.6,48.9,44.6,37.5,87,51,25,30.03,29.95,6,1,16,0.00
2013-6-21,88.3,66.6,44.9,53.5,46.3,41.6,89,54,22,29.98,29.93,3,1,10,0.00
2013-6-22,90.3,70.6,48.1,52.5,47.2,41.5,87,50,20,29.94,29.87,6,1,20,0.00
2013-6-23,69.8,61.9,54.9,60.1,55.4,51.2,89,80,67,29.87,29.83,5,2,13,0.00
2013-6-24,61.6,58.4,55.8,57.5,55.7,53.2,96,91,81,30.01,29.80,3,0,16,0.04
2013-6-25,63.1,60.9,58.6,62.5,60.2,57.5,98,98,96,30.10,29.88,7,1,9,0.22
2013-6-26,78.3,67.5,60.1,67.0,62.5,58.6,99,85,61,30.18,29.98,6,1,10,0.00
2013-6-27,89.8,70.8,57.1,68.6,61.1,56.2,98,75,43,30.21,30.05,6,0,7,0.01
2013-6-28,94.5,76.1,57.4,69.8,63.0,55.7,96,67,40,30.16,29.94,5,0,9,0.00
2013-6-29,98.5,79.7,57.5,67.8,61.1,55.3,94,58,33,30.04,29.85,6,0,7,0.00
2013-6-30,91.5,72.8,55.6,66.2,58.2,52.5,90,63,38,29.96,29.79,9,0,10,0.00
2013-7-1,93.1,72.0,54.7,66.7,58.6,52.0,94,66,37,29.98,29.81,7,0,10,0.00
2013-7-2,89.1,68.4,57.7,66.2,57.9,54.5,90,71,43,30.05,29.83,10,2,15,0.00
2013-7-3,84.4,68.6,56.7,64.3,58.0,54.3,94,72,47,30.04,29.80,9,1,13,0.00
2013-7-4,96.5,76.4,61.7,64.8,56.4,42.4,85,56,19,29.94,29.72,25,2,27,0.00
2013-7-5,81.9,65.7,52.7,59.4,51.8,47.0,85,63,42,29.87,29.70,11,2,15,0.00
2013-7-6,73.3,59.6,50.4,57.9,52.2,48.2,94,78,56,29.91,29.75,8,2,11,0.00
2013-7-7,75.4,59.6,52.0,58.6,52.7,49.7,93,79,53,29.99,29.81,10,2,13,0.00
2013-7-8,76.7,59.8,51.7,58.8,52.7,49.2,93,79,51,30.10,29.88,9,2,13,0.00
2013-7-9,90.0,64.4,50.7,59.7,53.2,49.1,97,73,27,30.16,29.96,8,1,9,0.00
2013-7-10,74.4,58.7,49.7,57.7,51.1,47.8,94,78,50,30.11,29.93,11,2,13,0.00
2013-7-11,72.8,57.2,49.7,56.7,50.9,47.5,94,81,56,30.07,29.89,9,2,12,0.00
2013-7-12,74.3,59.2,51.5,57.9,51.9,48.4,93,78,55,30.06,29.88,13,1,13,0.00
2013-7-13,79.4,60.6,46.2,58.8,51.2,44.3,96,74,44,30.07,29.90,9,1,11,0.00
2013-7-14,73.9,59.0,50.8,57.1,51.9,48.4,95,79,52,30.12,29.92,9,2,12,0.00
2013-7-15,66.4,55.6,49.4,54.5,50.5,47.7,94,84,62,30.05,29.86,9,2,13,0.00
2013-7-16,66.8,58.0,53.0,57.2,52.7,50.1,93,83,68,30.13,29.88,9,1,15,0.00
2013-7-17,77.5,60.2,48.1,60.5,53.5,45.7,96,80,53,30.21,30.03,9,1,12,0.01
2013-12-29,65.1,43.7,27.5,33.9,29.4,24.1,89,62,26,30.19,30.08,3,0,9,0.00
2013-12-30,63.4,42.0,26.2,36.8,30.8,23.1,90,68,35,30.26,30.18,1,0,6,0.00
2013-12-31,62.9,42.7,31.9,44.6,34.7,28.8,93,76,38,30.28,30.16,2,0,5,0.00
2014-1-1,67.2,40.0,26.6,43.5,31.0,24.6,96,76,26,30.22,30.12,1,0,5,0.00
2014-1-2,64.1,44.8,30.4,40.2,35.5,28.4,95,73,39,30.19,30.05,0,0,2,0.00